Terminal Aerodrome Forecast
Issued by NWS Knoxville/Tri Cities, TN

Home | Current Version | Previous Version | Text Only | Print | Product List | Glossary On
Versions: 1 2 3 4 5 6 7 8 9 10 11 12 13 14 15 16 17 18 19 20 21 22 23 24 25 26 27 28 29 30 31 32 33 34 35 36 37
000
FTUS44 KMRX 040534
TAFCHA
TAF
KCHA 040534Z 0406/0506 20003KT 1SM BR OVC002 WS020/21045KT
      TEMPO 0407/0410 2SM -DZ BR BKN007 OVC015
     FM041000 21007KT 6SM BR BKN035 OVC070
     FM041400 21008G20KT P6SM SCT030 BKN060
     FM042200 22010KT 4SM -SHRA BR OVC040
     FM050300 36012KT 3SM SHRA BR OVC020=

USA.gov is the U.S. government's official web portal to all federal, state and local government web resources and services.